sensor_id;sensor_type;location;lat;lon;timestamp;pressure;altitude;pressure_sealevel;temperature
64600;BMP280;6553;48.412;9.514;2023-04-01T00:01:05;71626.34;;;19.49
64600;BMP280;6553;48.412;9.514;2023-04-01T00:03:32;71623.72;;;19.47
64600;BMP280;6553;48.412;9.514;2023-04-01T00:05:59;71625.84;;;19.49
64600;BMP280;6553;48.412;9.514;2023-04-01T00:08:27;71625.84;;;19.49
64600;BMP280;6553;48.412;9.514;2023-04-01T00:10:53;71625.84;;;19.49
64600;BMP280;6553;48.412;9.514;2023-04-01T00:13:20;71625.31;;;19.48
64600;BMP280;6553;48.412;9.514;2023-04-01T00:15:47;71622.63;;;19.46
64600;BMP280;6553;48.412;9.514;2023-04-01T00:18:13;71617.63;;;19.46
64600;BMP280;6553;48.412;9.514;2023-04-01T00:20:43;71621.47;;;19.47
64600;BMP280;6553;48.412;9.514;2023-04-01T00:23:09;71623.72;;;19.47
64600;BMP280;6553;48.412;9.514;2023-04-01T00:25:35;71615.00;;;19.44
64600;BMP280;6553;48.412;9.514;2023-04-01T00:28:00;71623.16;;;19.46
64600;BMP280;6553;48.412;9.514;2023-04-01T00:30:26;71614.47;;;19.43
64600;BMP280;6553;48.412;9.514;2023-04-01T00:32:53;71617.63;;;19.46
64600;BMP280;6553;48.412;9.514;2023-04-01T00:35:19;71622.63;;;19.46
64600;BMP280;6553;48.412;9.514;2023-04-01T00:37:45;71620.41;;;19.46
64600;BMP280;6553;48.412;9.514;2023-04-01T00:40:29;71620.53;;;19.44
64600;BMP280;6553;48.412;9.514;2023-04-01T00:42:55;71620.41;;;19.46
64600;BMP280;6553;48.412;9.514;2023-04-01T00:47:59;71621.59;;;19.45
64600;BMP280;6553;48.412;9.514;2023-04-01T00:50:30;71623.16;;;19.46
64600;BMP280;6553;48.412;9.514;2023-04-01T00:52:57;71623.72;;;19.47
64600;BMP280;6553;48.412;9.514;2023-04-01T00:55:27;71622.09;;;19.45
64600;BMP280;6553;48.412;9.514;2023-04-01T00:57:57;71624.38;;;19.45
64600;BMP280;6553;48.412;9.514;2023-04-01T01:00:24;71624.38;;;19.45
64600;BMP280;6553;48.412;9.514;2023-04-01T01:02:52;71615.53;;;19.44
64600;BMP280;6553;48.412;9.514;2023-04-01T01:05:29;71616.06;;;19.45
64600;BMP280;6553;48.412;9.514;2023-04-01T01:08:15;71615.53;;;19.44
64600;BMP280;6553;48.412;9.514;2023-04-01T01:10:45;71618.84;;;19.45
64600;BMP280;6553;48.412;9.514;2023-04-01T01:13:35;71615.53;;;19.44
64600;BMP280;6553;48.412;9.514;2023-04-01T01:29:01;71621.59;;;19.45
64600;BMP280;6553;48.412;9.514;2023-04-01T01:37:44;71624.38;;;19.45
64600;BMP280;6553;48.412;9.514;2023-04-01T01:40:13;71621.06;;;19.44
64600;BMP280;6553;48.412;9.514;2023-04-01T01:42:48;71621.59;;;19.45
64600;BMP280;6553;48.412;9.514;2023-04-01T01:45:20;71626.47;;;19.47
64600;BMP280;6553;48.412;9.514;2023-04-01T01:47:48;71618.31;;;19.44
64600;BMP280;6553;48.412;9.514;2023-04-01T01:50:16;71623.84;;;19.44
64600;BMP280;6553;48.412;9.514;2023-04-01T01:52:43;71616.56;;;19.45
64600;BMP280;6553;48.412;9.514;2023-04-01T01:55:45;71617.09;;;19.46
64600;BMP280;6553;48.412;9.514;2023-04-01T01:58:28;71617.09;;;19.46
64600;BMP280;6553;48.412;9.514;2023-04-01T02:01:01;71627.63;;;19.45
64600;BMP280;6553;48.412;9.514;2023-04-01T02:03:33;71622.09;;;19.45
64600;BMP280;6553;48.412;9.514;2023-04-01T02:06:06;71620.53;;;19.44
64600;BMP280;6553;48.412;9.514;2023-04-01T02:08:57;71619.34;;;19.45
64600;BMP280;6553;48.412;9.514;2023-04-01T02:11:34;71621.06;;;19.44
64600;BMP280;6553;48.412;9.514;2023-04-01T02:14:13;71625.94;;;19.46
64600;BMP280;6553;48.412;9.514;2023-04-01T02:19:15;71623.28;;;19.44
64600;BMP280;6553;48.412;9.514;2023-04-01T02:21:43;71620.00;;;19.43
64600;BMP280;6553;48.412;9.514;2023-04-01T02:24:14;71614.47;;;19.43
64600;BMP280;6553;48.412;9.514;2023-04-01T02:26:41;71621.59;;;19.45
64600;BMP280;6553;48.412;9.514;2023-04-01T02:29:11;71615.53;;;19.44
64600;BMP280;6553;48.412;9.514;2023-04-01T02:31:37;71618.91;;;19.42
64600;BMP280;6553;48.412;9.514;2023-04-01T02:34:04;71619.47;;;19.43
64600;BMP280;6553;48.412;9.514;2023-04-01T02:36:30;71618.91;;;19.42
64600;BMP280;6553;48.412;9.514;2023-04-01T02:38:58;71612.34;;;19.41
64600;BMP280;6553;48.412;9.514;2023-04-01T02:41:28;71619.47;;;19.43
64600;BMP280;6553;48.412;9.514;2023-04-01T02:43:54;71616.69;;;19.43
64600;BMP280;6553;48.412;9.514;2023-04-01T02:46:20;71616.69;;;19.43
64600;BMP280;6553;48.412;9.514;2023-04-01T02:48:46;71615.00;;;19.44
64600;BMP280;6553;48.412;9.514;2023-04-01T02:51:12;71614.47;;;19.43
64600;BMP280;6553;48.412;9.514;2023-04-01T02:53:38;71621.59;;;19.45
64600;BMP280;6553;48.412;9.514;2023-04-01T02:56:04;71617.75;;;19.44
64600;BMP280;6553;48.412;9.514;2023-04-01T02:58:30;71622.75;;;19.43
64600;BMP280;6553;48.412;9.514;2023-04-01T03:00:55;71618.38;;;19.42
64600;BMP280;6553;48.412;9.514;2023-04-01T03:03:21;71621.69;;;19.42
64600;BMP280;6553;48.412;9.514;2023-04-01T03:05:47;71612.44;;;19.39
64600;BMP280;6553;48.412;9.514;2023-04-01T03:08:13;71619.47;;;19.43
64600;BMP280;6553;48.412;9.514;2023-04-01T03:10:39;71613.91;;;19.43
64600;BMP280;6553;48.412;9.514;2023-04-01T03:13:05;71625.53;;;19.43
64600;BMP280;6553;48.412;9.514;2023-04-01T03:15:32;71612.84;;;19.42
64600;BMP280;6553;48.412;9.514;2023-04-01T03:17:57;71617.22;;;19.43
64600;BMP280;6553;48.412;9.514;2023-04-01T03:20:23;71613.38;;;19.42
64600;BMP280;6553;48.412;9.514;2023-04-01T03:22:49;71616.81;;;19.40
64600;BMP280;6553;48.412;9.514;2023-04-01T03:25:15;71616.28;;;19.40
64600;BMP280;6553;48.412;9.514;2023-04-01T03:27:41;71618.38;;;19.42
64600;BMP280;6553;48.412;9.514;2023-04-01T03:30:08;71618.38;;;19.42
64600;BMP280;6553;48.412;9.514;2023-04-01T03:32:42;71613.38;;;19.42
64600;BMP280;6553;48.412;9.514;2023-04-01T03:35:08;71617.34;;;19.41
64600;BMP280;6553;48.412;9.514;2023-04-01T03:37:36;71618.91;;;19.42
64600;BMP280;6553;48.412;9.514;2023-04-01T03:40:02;71616.16;;;19.42
64600;BMP280;6553;48.412;9.514;2023-04-01T03:42:30;71623.91;;;19.42
64600;BMP280;6553;48.412;9.514;2023-04-01T03:44:56;71616.81;;;19.40
64600;BMP280;6553;48.412;9.514;2023-04-01T03:47:23;71618.50;;;19.39
64600;BMP280;6553;48.412;9.514;2023-04-01T03:49:48;71613.50;;;19.40
64600;BMP280;6553;48.412;9.514;2023-04-01T03:52:14;71614.56;;;19.41
64600;BMP280;6553;48.412;9.514;2023-04-01T03:54:40;71619.06;;;19.40
64600;BMP280;6553;48.412;9.514;2023-04-01T03:57:07;71619.47;;;19.43
64600;BMP280;6553;48.412;9.514;2023-04-01T03:59:34;71619.59;;;19.40
64600;BMP280;6553;48.412;9.514;2023-04-01T04:02:00;71615.22;;;19.39
64600;BMP280;6553;48.412;9.514;2023-04-01T04:04:26;71610.22;;;19.39
64600;BMP280;6553;48.412;9.514;2023-04-01T04:06:54;71611.78;;;19.41
64600;BMP280;6553;48.412;9.514;2023-04-01T04:09:23;71613.50;;;19.40
64600;BMP280;6553;48.412;9.514;2023-04-01T04:11:50;71616.81;;;19.40
64600;BMP280;6553;48.412;9.514;2023-04-01T04:14:16;71610.75;;;19.40
64600;BMP280;6553;48.412;9.514;2023-04-01T04:16:42;71615.22;;;19.39
64600;BMP280;6553;48.412;9.514;2023-04-01T04:19:09;71614.66;;;19.38
64600;BMP280;6553;48.412;9.514;2023-04-01T04:21:35;71611.91;;;19.38
64600;BMP280;6553;48.412;9.514;2023-04-01T04:24:02;71614.66;;;19.38
64600;BMP280;6553;48.412;9.514;2023-04-01T04:26:45;71614.16;;;19.38
64600;BMP280;6553;48.412;9.514;2023-04-01T04:29:10;71610.84;;;19.37
64600;BMP280;6553;48.412;9.514;2023-04-01T04:31:36;71613.63;;;19.37
64600;BMP280;6553;48.412;9.514;2023-04-01T04:34:02;71608.63;;;19.38
64600;BMP280;6553;48.412;9.514;2023-04-01T04:36:32;71611.38;;;19.38
64600;BMP280;6553;48.412;9.514;2023-04-01T04:38:57;71612.44;;;19.39
64600;BMP280;6553;48.412;9.514;2023-04-01T04:41:27;71608.63;;;19.38
64600;BMP280;6553;48.412;9.514;2023-04-01T04:43:56;71609.66;;;19.39
64600;BMP280;6553;48.412;9.514;2023-04-01T04:46:24;71615.75;;;19.39
64600;BMP280;6553;48.412;9.514;2023-04-01T04:48:56;71610.75;;;19.40
64600;BMP280;6553;48.412;9.514;2023-04-01T04:51:22;71613.50;;;19.40
64600;BMP280;6553;48.412;9.514;2023-04-01T04:53:48;71614.56;;;19.41
64600;BMP280;6553;48.412;9.514;2023-04-01T04:56:22;71608.63;;;19.38
64600;BMP280;6553;48.412;9.514;2023-04-01T04:58:59;71615.22;;;19.39
64600;BMP280;6553;48.412;9.514;2023-04-01T05:01:36;71610.22;;;19.39
64600;BMP280;6553;48.412;9.514;2023-04-01T05:04:02;71612.44;;;19.39
64600;BMP280;6553;48.412;9.514;2023-04-01T05:06:28;71614.66;;;19.38
64600;BMP280;6553;48.412;9.514;2023-04-01T05:08:55;71608.09;;;19.37
64600;BMP280;6553;48.412;9.514;2023-04-01T05:11:22;71615.22;;;19.39
64600;BMP280;6553;48.412;9.514;2023-04-01T05:13:50;71608.63;;;19.38
64600;BMP280;6553;48.412;9.514;2023-04-01T05:16:20;71610.75;;;19.40
64600;BMP280;6553;48.412;9.514;2023-04-01T05:18:47;71612.84;;;19.42
64600;BMP280;6553;48.412;9.514;2023-04-01T05:21:14;71613.50;;;19.40
64600;BMP280;6553;48.412;9.514;2023-04-01T05:23:41;71611.78;;;19.41
64600;BMP280;6553;48.412;9.514;2023-04-01T05:26:11;71610.22;;;19.39
64600;BMP280;6553;48.412;9.514;2023-04-01T05:28:38;71617.34;;;19.41
64600;BMP280;6553;48.412;9.514;2023-04-01T05:31:06;71616.28;;;19.40
64600;BMP280;6553;48.412;9.514;2023-04-01T05:33:37;71611.91;;;19.38
64600;BMP280;6553;48.412;9.514;2023-04-01T05:36:13;71611.28;;;19.40
64600;BMP280;6553;48.412;9.514;2023-04-01T05:38:40;71619.06;;;19.40
64600;BMP280;6553;48.412;9.514;2023-04-01T05:41:10;71615.22;;;19.39
64600;BMP280;6553;48.412;9.514;2023-04-01T05:43:41;71617.34;;;19.41
64600;BMP280;6553;48.412;9.514;2023-04-01T05:46:26;71617.34;;;19.41
64600;BMP280;6553;48.412;9.514;2023-04-01T05:48:57;71617.88;;;19.41
64600;BMP280;6553;48.412;9.514;2023-04-01T05:51:25;71614.03;;;19.40
64600;BMP280;6553;48.412;9.514;2023-04-01T05:53:50;71617.34;;;19.41
64600;BMP280;6553;48.412;9.514;2023-04-01T05:56:17;71618.38;;;19.42
64600;BMP280;6553;48.412;9.514;2023-04-01T05:58:52;71620.00;;;19.43
64600;BMP280;6553;48.412;9.514;2023-04-01T06:01:20;71618.91;;;19.42
64600;BMP280;6553;48.412;9.514;2023-04-01T06:03:46;71621.06;;;19.44
64600;BMP280;6553;48.412;9.514;2023-04-01T06:06:27;71615.63;;;19.42
64600;BMP280;6553;48.412;9.514;2023-04-01T06:09:12;71611.78;;;19.41
64600;BMP280;6553;48.412;9.514;2023-04-01T06:12:26;71617.34;;;19.41
64600;BMP280;6553;48.412;9.514;2023-04-01T06:15:24;71624.88;;;19.45
64600;BMP280;6553;48.412;9.514;2023-04-01T06:26:42;71625.84;;;19.49
64600;BMP280;6553;48.412;9.514;2023-04-01T06:32:40;71627.97;;;19.51
64600;BMP280;6553;48.412;9.514;2023-04-01T06:38:24;71627.97;;;19.51
64600;BMP280;6553;48.412;9.514;2023-04-01T06:43:58;71627.97;;;19.51
64600;BMP280;6553;48.412;9.514;2023-04-01T06:46:58;71630.19;;;19.50
64600;BMP280;6553;48.412;9.514;2023-04-01T06:50:17;71626.78;;;19.52
64600;BMP280;6553;48.412;9.514;2023-04-01T06:53:18;71626.78;;;19.52
64600;BMP280;6553;48.412;9.514;2023-04-01T06:56:18;71621.88;;;19.50
64600;BMP280;6553;48.412;9.514;2023-04-01T06:59:08;71624.66;;;19.50
64600;BMP280;6553;48.412;9.514;2023-04-01T07:01:42;71627.97;;;19.51
64600;BMP280;6553;48.412;9.514;2023-04-01T07:04:17;71628.50;;;19.51
64600;BMP280;6553;48.412;9.514;2023-04-01T07:06:57;71621.34;;;19.50
64600;BMP280;6553;48.412;9.514;2023-04-01T07:09:35;71632.09;;;19.57
64600;BMP280;6553;48.412;9.514;2023-04-01T07:15:40;71632.19;;;19.55
64600;BMP280;6553;48.412;9.514;2023-04-01T07:18:19;71626.25;;;19.52
64600;BMP280;6553;48.412;9.514;2023-04-01T07:20:48;71629.03;;;19.52
64600;BMP280;6553;48.412;9.514;2023-04-01T07:23:25;71623.50;;;19.52
64600;BMP280;6553;48.412;9.514;2023-04-01T07:26:19;71622.41;;;19.51
64600;BMP280;6553;48.412;9.514;2023-04-01T07:29:12;71627.41;;;19.50
64600;BMP280;6553;48.412;9.514;2023-04-01T07:41:19;71620.28;;;19.49
64600;BMP280;6553;48.412;9.514;2023-04-01T07:46:59;71625.19;;;19.51
64600;BMP280;6553;48.412;9.514;2023-04-01T07:49:50;71626.25;;;19.52
64600;BMP280;6553;48.412;9.514;2023-04-01T08:07:17;71627.41;;;19.50
64600;BMP280;6553;48.412;9.514;2023-04-01T08:13:38;71627.41;;;19.50
64600;BMP280;6553;48.412;9.514;2023-04-01T08:20:03;71628.50;;;19.51
64600;BMP280;6553;48.412;9.514;2023-04-01T08:22:42;71624.66;;;19.50
64600;BMP280;6553;48.412;9.514;2023-04-01T08:25:28;71621.88;;;19.50
64600;BMP280;6553;48.412;9.514;2023-04-01T08:31:00;71621.34;;;19.50
64600;BMP280;6553;48.412;9.514;2023-04-01T08:33:31;71625.84;;;19.49
64600;BMP280;6553;48.412;9.514;2023-04-01T08:36:09;71626.34;;;19.49
64600;BMP280;6553;48.412;9.514;2023-04-01T08:38:46;71628.59;;;19.49
64600;BMP280;6553;48.412;9.514;2023-04-01T08:42:25;71622.41;;;19.51
64600;BMP280;6553;48.412;9.514;2023-04-01T08:45:18;71623.50;;;19.52
64600;BMP280;6553;48.412;9.514;2023-04-01T08:58:35;71619.78;;;19.48
64600;BMP280;6553;48.412;9.514;2023-04-01T09:01:36;71626.88;;;19.50
64600;BMP280;6553;48.412;9.514;2023-04-01T09:08:37;71620.28;;;19.49
64600;BMP280;6553;48.412;9.514;2023-04-01T09:22:57;71625.84;;;19.49
64600;BMP280;6553;48.412;9.514;2023-04-01T09:26:12;71625.84;;;19.49
64600;BMP280;6553;48.412;9.514;2023-04-01T09:31:45;71622.97;;;19.51
64600;BMP280;6553;48.412;9.514;2023-04-01T09:40:55;71628.50;;;19.51
64600;BMP280;6553;48.412;9.514;2023-04-01T09:44:00;71625.19;;;19.51
64600;BMP280;6553;48.412;9.514;2023-04-01T09:46:42;71625.84;;;19.49
64600;BMP280;6553;48.412;9.514;2023-04-01T09:52:57;71630.09;;;19.53
64600;BMP280;6553;48.412;9.514;2023-04-01T10:25:16;71627.19;;;19.55
64600;BMP280;6553;48.412;9.514;2023-04-01T10:34:31;71636.97;;;19.59
64600;BMP280;6553;48.412;9.514;2023-04-01T10:59:02;71631.56;;;19.57
64600;BMP280;6553;48.412;9.514;2023-04-01T11:06:12;71631.56;;;19.57
64600;BMP280;6553;48.412;9.514;2023-04-01T11:14:38;71631.56;;;19.57
64600;BMP280;6553;48.412;9.514;2023-04-01T11:21:14;71632.09;;;19.57
64600;BMP280;6553;48.412;9.514;2023-04-01T11:26:37;71629.44;;;19.55
64600;BMP280;6553;48.412;9.514;2023-04-01T11:39:13;71632.09;;;19.57
64600;BMP280;6553;48.412;9.514;2023-04-01T11:42:38;71632.63;;;19.58
64600;BMP280;6553;48.412;9.514;2023-04-01T11:45:45;71635.28;;;19.60
64600;BMP280;6553;48.412;9.514;2023-04-01T12:01:47;71634.13;;;19.62
64600;BMP280;6553;48.412;9.514;2023-04-01T12:04:45;71640.06;;;19.65
64600;BMP280;6553;48.412;9.514;2023-04-01T12:07:50;71632.50;;;19.60
64600;BMP280;6553;48.412;9.514;2023-04-01T12:10:26;71635.28;;;19.60
64600;BMP280;6553;48.412;9.514;2023-04-01T12:16:34;71633.03;;;19.61
64600;BMP280;6553;48.412;9.514;2023-04-01T12:22:38;71639.66;;;19.62
64600;BMP280;6553;48.412;9.514;2023-04-01T12:26:23;71636.34;;;19.62
64600;BMP280;6553;48.412;9.514;2023-04-01T12:28:45;71636.34;;;19.62
64600;BMP280;6553;48.412;9.514;2023-04-01T12:40:51;71640.16;;;19.63
64600;BMP280;6553;48.412;9.514;2023-04-01T12:43:49;71635.81;;;19.61
64600;BMP280;6553;48.412;9.514;2023-04-01T12:47:12;71635.81;;;19.61
64600;BMP280;6553;48.412;9.514;2023-04-01T12:50:26;71632.50;;;19.60
64600;BMP280;6553;48.412;9.514;2023-04-01T12:55:46;71634.75;;;19.60
64600;BMP280;6553;48.412;9.514;2023-04-01T12:58:47;71631.97;;;19.60
64600;BMP280;6553;48.412;9.514;2023-04-01T13:10:31;71640.69;;;19.63
64600;BMP280;6553;48.412;9.514;2023-04-01T13:13:33;71636.88;;;19.62
64600;BMP280;6553;48.412;9.514;2023-04-01T13:16:22;71637.50;;;19.60
64600;BMP280;6553;48.412;9.514;2023-04-01T13:19:09;71637.91;;;19.63
64600;BMP280;6553;48.412;9.514;2023-04-01T13:22:11;71634.13;;;19.62
64600;BMP280;6553;48.412;9.514;2023-04-01T13:25:10;71636.22;;;19.64
64600;BMP280;6553;48.412;9.514;2023-04-01T13:27:49;71637.91;;;19.63
64600;BMP280;6553;48.412;9.514;2023-04-01T13:30:44;71642.81;;;19.65
64600;BMP280;6553;48.412;9.514;2023-04-01T13:39:33;71648.38;;;19.65
64600;BMP280;6553;48.412;9.514;2023-04-01T13:42:43;71635.16;;;19.63
64600;BMP280;6553;48.412;9.514;2023-04-01T13:45:19;71634.13;;;19.62
64600;BMP280;6553;48.412;9.514;2023-04-01T13:48:26;71641.75;;;19.64
64600;BMP280;6553;48.412;9.514;2023-04-01T13:54:00;71639.13;;;19.62
64600;BMP280;6553;48.412;9.514;2023-04-01T14:00:10;71642.41;;;19.62
64600;BMP280;6553;48.412;9.514;2023-04-01T14:06:21;71636.34;;;19.62
64600;BMP280;6553;48.412;9.514;2023-04-01T14:09:33;71635.81;;;19.61
64600;BMP280;6553;48.412;9.514;2023-04-01T14:12:27;71632.50;;;19.60
64600;BMP280;6553;48.412;9.514;2023-04-01T14:15:25;71630.91;;;19.59
64600;BMP280;6553;48.412;9.514;2023-04-01T14:23:41;71638.56;;;19.61
64600;BMP280;6553;48.412;9.514;2023-04-01T14:26:59;71638.56;;;19.61
64600;BMP280;6553;48.412;9.514;2023-04-01T14:32:54;71637.50;;;19.60
64600;BMP280;6553;48.412;9.514;2023-04-01T14:39:21;71621.44;;;19.60
64600;BMP280;6553;48.412;9.514;2023-04-01T14:41:51;71636.88;;;19.62
64600;BMP280;6553;48.412;9.514;2023-04-01T14:47:34;71635.81;;;19.61
64600;BMP280;6553;48.412;9.514;2023-04-01T14:50:16;71641.34;;;19.61
64600;BMP280;6553;48.412;9.514;2023-04-01T14:52:56;71640.69;;;19.63
64600;BMP280;6553;48.412;9.514;2023-04-01T14:55:36;71640.16;;;19.63
64600;BMP280;6553;48.412;9.514;2023-04-01T14:58:13;71635.81;;;19.61
64600;BMP280;6553;48.412;9.514;2023-04-01T15:01:07;71639.66;;;19.62
64600;BMP280;6553;48.412;9.514;2023-04-01T15:04:20;71636.44;;;19.59
64600;BMP280;6553;48.412;9.514;2023-04-01T15:07:05;71631.44;;;19.59
64600;BMP280;6553;48.412;9.514;2023-04-01T15:12:33;71638.56;;;19.61
64600;BMP280;6553;48.412;9.514;2023-04-01T15:15:14;71638.03;;;19.60
64600;BMP280;6553;48.412;9.514;2023-04-01T15:17:58;71633.16;;;19.58
64600;BMP280;6553;48.412;9.514;2023-04-01T15:21:13;71637.50;;;19.60
64600;BMP280;6553;48.412;9.514;2023-04-01T15:24:17;71632.50;;;19.60
64600;BMP280;6553;48.412;9.514;2023-04-01T15:30:13;71636.97;;;19.59
64600;BMP280;6553;48.412;9.514;2023-04-01T15:33:01;71639.22;;;19.59
64600;BMP280;6553;48.412;9.514;2023-04-01T15:38:53;71632.63;;;19.58
64600;BMP280;6553;48.412;9.514;2023-04-01T15:45:08;71633.69;;;19.59
64600;BMP280;6553;48.412;9.514;2023-04-01T15:50:36;71630.91;;;19.59
64600;BMP280;6553;48.412;9.514;2023-04-01T15:59:44;71635.41;;;19.58
64600;BMP280;6553;48.412;9.514;2023-04-01T16:02:18;71634.31;;;19.57
64600;BMP280;6553;48.412;9.514;2023-04-01T16:04:59;71633.78;;;19.56
64600;BMP280;6553;48.412;9.514;2023-04-01T16:10:44;71628.91;;;19.54
64600;BMP280;6553;48.412;9.514;2023-04-01T16:13:48;71633.25;;;19.56
64600;BMP280;6553;48.412;9.514;2023-04-01T16:22:13;71628.91;;;19.54
64600;BMP280;6553;48.412;9.514;2023-04-01T16:30:24;71631.66;;;19.54
64600;BMP280;6553;48.412;9.514;2023-04-01T16:36:28;71630.50;;;19.56
64600;BMP280;6553;48.412;9.514;2023-04-01T16:39:28;71634.44;;;19.54
64600;BMP280;6553;48.412;9.514;2023-04-01T16:42:30;71629.44;;;19.55
64600;BMP280;6553;48.412;9.514;2023-04-01T16:47:39;71629.03;;;19.52
64600;BMP280;6553;48.412;9.514;2023-04-01T16:50:26;71629.03;;;19.52
64600;BMP280;6553;48.412;9.514;2023-04-01T16:58:48;71629.03;;;19.52
64600;BMP280;6553;48.412;9.514;2023-04-01T17:01:26;71626.78;;;19.52
64600;BMP280;6553;48.412;9.514;2023-04-01T17:07:01;71649.72;;;19.72
64600;BMP280;6553;48.412;9.514;2023-04-01T17:19:03;71631.97;;;19.60
64600;BMP280;6553;48.412;9.514;2023-04-01T17:25:25;71627.31;;;19.53
64600;BMP280;6553;48.412;9.514;2023-04-01T17:28:09;71625.59;;;19.54
64600;BMP280;6553;48.412;9.514;2023-04-01T17:30:50;71627.31;;;19.53
64600;BMP280;6553;48.412;9.514;2023-04-01T17:42:14;71621.34;;;19.50
64600;BMP280;6553;48.412;9.514;2023-04-01T17:44:58;71626.78;;;19.52
64600;BMP280;6553;48.412;9.514;2023-04-01T17:51:17;71623.50;;;19.52
64600;BMP280;6553;48.412;9.514;2023-04-01T17:54:31;71629.03;;;19.52
64600;BMP280;6553;48.412;9.514;2023-04-01T18:06:14;71626.88;;;19.50
64600;BMP280;6553;48.412;9.514;2023-04-01T18:11:39;71628.50;;;19.51
64600;BMP280;6553;48.412;9.514;2023-04-01T18:14:42;71627.97;;;19.51
64600;BMP280;6553;48.412;9.514;2023-04-01T18:23:14;71629.53;;;19.52
64600;BMP280;6553;48.412;9.514;2023-04-01T18:25:50;71626.25;;;19.52
64600;BMP280;6553;48.412;9.514;2023-04-01T18:28:40;71627.97;;;19.51
64600;BMP280;6553;48.412;9.514;2023-04-01T18:31:26;71626.25;;;19.52
64600;BMP280;6553;48.412;9.514;2023-04-01T18:34:28;71627.97;;;19.51
64600;BMP280;6553;48.412;9.514;2023-04-01T18:43:30;71623.06;;;19.49
64600;BMP280;6553;48.412;9.514;2023-04-01T18:46:29;71620.81;;;19.49
64600;BMP280;6553;48.412;9.514;2023-04-01T18:52:31;71625.84;;;19.49
64600;BMP280;6553;48.412;9.514;2023-04-01T18:57:19;71620.81;;;19.49
64600;BMP280;6553;48.412;9.514;2023-04-01T18:59:56;71627.97;;;19.51
64600;BMP280;6553;48.412;9.514;2023-04-01T19:02:44;71628.59;;;19.49
64600;BMP280;6553;48.412;9.514;2023-04-01T19:05:42;71625.84;;;19.49
64600;BMP280;6553;48.412;9.514;2023-04-01T19:08:35;71624.78;;;19.48
64600;BMP280;6553;48.412;9.514;2023-04-01T19:34:46;71622.00;;;19.48
64600;BMP280;6553;48.412;9.514;2023-04-01T19:37:39;71619.88;;;19.46
64600;BMP280;6553;48.412;9.514;2023-04-01T19:40:52;71625.31;;;19.48
64600;BMP280;6553;48.412;9.514;2023-04-01T19:43:43;71623.06;;;19.49
64600;BMP280;6553;48.412;9.514;2023-04-01T19:46:13;71619.78;;;19.48
64600;BMP280;6553;48.412;9.514;2023-04-01T20:00:51;71623.72;;;19.47
64600;BMP280;6553;48.412;9.514;2023-04-01T20:03:46;71621.47;;;19.47
64600;BMP280;6553;48.412;9.514;2023-04-01T20:06:29;71622.09;;;19.45
64600;BMP280;6553;48.412;9.514;2023-04-01T20:12:47;71625.31;;;19.48
64600;BMP280;6553;48.412;9.514;2023-04-01T20:15:39;71625.84;;;19.49
64600;BMP280;6553;48.412;9.514;2023-04-01T20:18:22;71621.06;;;19.44
64600;BMP280;6553;48.412;9.514;2023-04-01T20:21:03;71624.78;;;19.48
64600;BMP280;6553;48.412;9.514;2023-04-01T20:23:58;71616.56;;;19.45
64600;BMP280;6553;48.412;9.514;2023-04-01T20:26:50;71619.25;;;19.48
64600;BMP280;6553;48.412;9.514;2023-04-01T20:40:29;71621.59;;;19.45
64600;BMP280;6553;48.412;9.514;2023-04-01T20:43:33;71618.31;;;19.44
64600;BMP280;6553;48.412;9.514;2023-04-01T20:46:30;71621.59;;;19.45
64600;BMP280;6553;48.412;9.514;2023-04-01T20:57:24;71623.16;;;19.46
64600;BMP280;6553;48.412;9.514;2023-04-01T21:00:24;71618.84;;;19.45
64600;BMP280;6553;48.412;9.514;2023-04-01T21:03:23;71616.06;;;19.45
64600;BMP280;6553;48.412;9.514;2023-04-01T21:12:52;71621.59;;;19.45
64600;BMP280;6553;48.412;9.514;2023-04-01T21:42:09;71620.00;;;19.43
64600;BMP280;6553;48.412;9.514;2023-04-01T21:50:18;71620.53;;;19.44
64600;BMP280;6553;48.412;9.514;2023-04-01T22:05:08;71623.84;;;19.44
64600;BMP280;6553;48.412;9.514;2023-04-01T22:08:03;71617.22;;;19.43
64600;BMP280;6553;48.412;9.514;2023-04-01T22:10:48;71623.16;;;19.46
64600;BMP280;6553;48.412;9.514;2023-04-01T22:19:27;71620.53;;;19.44
64600;BMP280;6553;48.412;9.514;2023-04-01T22:22:20;71615.00;;;19.44
64600;BMP280;6553;48.412;9.514;2023-04-01T22:25:07;71616.56;;;19.45
64600;BMP280;6553;48.412;9.514;2023-04-01T22:27:55;71616.06;;;19.45
64600;BMP280;6553;48.412;9.514;2023-04-01T22:30:36;71622.63;;;19.46
64600;BMP280;6553;48.412;9.514;2023-04-01T22:33:09;71621.59;;;19.45
64600;BMP280;6553;48.412;9.514;2023-04-01T22:36:11;71616.06;;;19.45
64600;BMP280;6553;48.412;9.514;2023-04-01T22:44:49;71623.28;;;19.44
64600;BMP280;6553;48.412;9.514;2023-04-01T22:47:35;71621.59;;;19.45
64600;BMP280;6553;48.412;9.514;2023-04-01T22:50:37;71619.34;;;19.45
64600;BMP280;6553;48.412;9.514;2023-04-01T22:53:57;71616.56;;;19.45
64600;BMP280;6553;48.412;9.514;2023-04-01T22:56:37;71622.09;;;19.45
64600;BMP280;6553;48.412;9.514;2023-04-01T22:59:11;71616.69;;;19.43
64600;BMP280;6553;48.412;9.514;2023-04-01T23:02:06;71621.59;;;19.45
64600;BMP280;6553;48.412;9.514;2023-04-01T23:04:41;71618.84;;;19.45
64600;BMP280;6553;48.412;9.514;2023-04-01T23:10:42;71619.47;;;19.43
64600;BMP280;6553;48.412;9.514;2023-04-01T23:13:24;71622.63;;;19.46
64600;BMP280;6553;48.412;9.514;2023-04-01T23:15:53;71615.00;;;19.44
64600;BMP280;6553;48.412;9.514;2023-04-01T23:18:36;71617.75;;;19.44
64600;BMP280;6553;48.412;9.514;2023-04-01T23:24:30;71617.75;;;19.44
64600;BMP280;6553;48.412;9.514;2023-04-01T23:27:05;71618.38;;;19.42
64600;BMP280;6553;48.412;9.514;2023-04-01T23:29:37;71620.00;;;19.43
64600;BMP280;6553;48.412;9.514;2023-04-01T23:32:24;71617.22;;;19.43
64600;BMP280;6553;48.412;9.514;2023-04-01T23:34:58;71618.31;;;19.44
64600;BMP280;6553;48.412;9.514;2023-04-01T23:37:26;71621.06;;;19.44
64600;BMP280;6553;48.412;9.514;2023-04-01T23:39:56;71621.06;;;19.44
64600;BMP280;6553;48.412;9.514;2023-04-01T23:42:32;71617.75;;;19.44
64600;BMP280;6553;48.412;9.514;2023-04-01T23:45:04;71613.38;;;19.42
64600;BMP280;6553;48.412;9.514;2023-04-01T23:47:33;71614.47;;;19.43
64600;BMP280;6553;48.412;9.514;2023-04-01T23:50:07;71620.00;;;19.43
64600;BMP280;6553;48.412;9.514;2023-04-01T23:52:43;71621.59;;;19.45
64600;BMP280;6553;48.412;9.514;2023-04-01T23:55:17;71616.69;;;19.43
